Platte Woods, Missouri
Current Conditions -  °F | °C
As of 4:54 AM on Sunday 21 Dec 2014 (Local Time) from KMKC Reporting Station
Overcast Overcast  
Wind Chill: 32°   Ceiling: 2200
Heat Index: 39°   Visibility: 10mi
Dew Point: 34°   Wind: 12mph
Humidity: 82%   Direction: 190°S
Pressure: 30.07"   Gusts: NA
Location:  39.2125°N, 94.6296°W
Report Text: KMKC 211054Z 19010KT 10SM SCT016 OVC022 04/01 A3007 RMK AO2 SLP186 T00390011
Loading
Personal Weather Stations






























Interactive Weather Map New forecast layout! Learn more

10-Day Weather Forecast

Advertisements
Track Severe Weather on mobile